55IN weather

Brenneke Airport
Woodburn, Indiana, United States

Public forecast

Using degrees Fahrenheit for public forecast. Weather courtesy of forecast.io.

METAR (pilot weather report)

Closest report is De Kalb County Airport, 13.4 nm (24.7 km) NW. Retrieved 2019/04/21 05:35 UTC (14 minutes ago):

KGWB 210535Z AUTO 00000KT 5SM BR OVC065 06/06 A2988 RMK AO2

TAF (pilot weather forecast)

Forecast is more than 12 hours old.

Closest forecast is Fort Wayne International Airport, 18.1 nm (33.5 km) WSW. Retrieved 2019/04/20 00:24 UTC (1 day ago):

TAF KFWA 202321Z 2100/2124 09008KT 6SM -RA FEW028 BKN050 FM210300 VRB04KT P6SM SCT040 FM211400 24005KT P6SM FEW250